Time;durP1;ratioP1;P1;durP2;ratioP2;P2;SDS_P1;SDS_P2;PMS_P1;PMS_P2;Temp;Humidity;BMP_temperature;BMP_pressure;BME280_temperature;BME280_humidity;BME280_pressure;Samples;Min_cycle;Max_cycle;Signal;HPM_P1;HPM_P2
2022/09/03 00:00:19;;;;;;;1.23;0.50;;;22.30;49.00;;;;;;2374088;53;20962;-67
2022/09/03 00:04:25;;;;;;;3.70;0.70;;;22.20;48.40;;;;;;2370821;53;20934;-68
2022/09/03 00:06:57;;;;;;;2.35;0.70;;;22.20;48.40;;;;;;2376536;52;20919;-69
2022/09/03 00:09:48;;;;;;;0.98;0.40;;;22.10;48.30;;;;;;2369822;53;21470;-69
2022/09/03 00:12:27;;;;;;;1.60;0.60;;;22.10;48.60;;;;;;2372753;54;21041;-69
2022/09/03 00:15:13;;;;;;;2.62;0.60;;;22.00;48.40;;;;;;2371165;54;20989;-70
2022/09/03 00:17:46;;;;;;;1.30;0.60;;;22.00;48.60;;;;;;2343350;54;21774;-70
2022/09/03 00:20:36;;;;;;;2.05;0.60;;;21.90;48.40;;;;;;2343746;53;20953;-72
2022/09/03 00:23:05;;;;;;;2.35;0.70;;;21.90;49.30;;;;;;2348318;53;20936;-69
2022/09/03 00:25:43;;;;;;;1.58;0.68;;;21.80;48.80;;;;;;2589391;52;20945;-69
2022/09/03 00:28:29;;;;;;;1.45;0.68;;;21.80;49.20;;;;;;2370532;53;20985;-70
2022/09/03 00:31:17;;;;;;;3.75;0.80;;;21.80;49.20;;;;;;2371242;53;20921;-72
2022/09/03 00:33:45;;;;;;;2.20;0.85;;;21.70;49.20;;;;;;2367417;53;20957;-68
2022/09/03 00:36:27;;;;;;;2.17;0.80;;;21.70;48.90;;;;;;2371466;54;21624;-71
2022/09/03 00:38:53;;;;;;;1.63;0.70;;;21.70;49.30;;;;;;2342273;53;20941;-69
2022/09/03 00:41:37;;;;;;;2.95;0.90;;;21.70;49.10;;;;;;2587995;53;20900;-68
2022/09/03 00:44:42;;;;;;;1.52;0.70;;;21.60;49.40;;;;;;2343669;54;20990;-68
2022/09/03 00:47:45;;;;;;;1.62;0.60;;;21.60;49.40;;;;;;2342765;53;21538;-70
2022/09/03 00:51:01;;;;;;;;;;;21.60;49.40;;;;;;2343139;54;21743;-70
2022/09/03 00:53:37;;;;;;;1.80;0.70;;;21.60;49.20;;;;;;2342446;54;20058;-69
2022/09/03 00:56:31;;;;;;;1.52;0.60;;;21.50;49.00;;;;;;2342523;53;20923;-70
2022/09/03 00:59:07;;;;;;;1.58;0.77;;;21.50;49.30;;;;;;2342745;54;20923;-70
2022/09/03 01:04:50;;;;;;;1.92;0.85;;;21.40;49.20;;;;;;2342997;54;20962;-69
2022/09/03 01:09:02;;;;;;;1.62;0.80;;;21.40;49.50;;;;;;2343347;54;20983;-68
2022/09/03 01:14:50;;;;;;;1.30;0.60;;;21.40;49.60;;;;;;2342498;54;20915;-68
2022/09/03 01:18:16;;;;;;;1.50;0.70;;;21.30;49.40;;;;;;2342969;54;21547;-67
2022/09/03 01:21:07;;;;;;;1.12;0.57;;;21.30;49.60;;;;;;2342863;53;20947;-71
2022/09/03 01:23:45;;;;;;;1.67;0.77;;;21.20;49.40;;;;;;2341837;54;21491;-71
2022/09/03 01:26:23;;;;;;;1.70;0.60;;;21.20;49.60;;;;;;2342783;53;20951;-70
2022/09/03 01:29:17;;;;;;;1.37;0.70;;;21.20;49.70;;;;;;2342755;54;21007;-70
2022/09/03 01:31:57;;;;;;;2.28;0.80;;;21.20;49.90;;;;;;2543682;53;21856;-69
2022/09/03 01:34:52;;;;;;;1.75;0.80;;;21.20;49.90;;;;;;2589316;53;20913;-71
2022/09/03 01:37:39;;;;;;;1.77;0.80;;;21.10;50.00;;;;;;2342602;53;20909;-69
2022/09/03 01:47:07;;;;;;;1.90;0.80;;;21.20;50.20;;;;;;2420468;52;20968;-69
2022/09/03 01:49:40;;;;;;;1.23;0.60;;;21.10;50.10;;;;;;2342498;54;20928;-68
2022/09/03 01:52:16;;;;;;;;;;;21.10;50.10;;;;;;2340642;54;20953;-67
2022/09/03 01:57:25;;;;;;;1.15;0.50;;;21.10;50.30;;;;;;2333300;53;20130;-68
2022/09/03 02:00:10;;;;;;;1.45;0.70;;;21.10;50.20;;;;;;2343204;53;20925;-68
2022/09/03 02:02:37;;;;;;;1.67;0.62;;;21.10;50.30;;;;;;2344625;53;21693;-69
2022/09/03 02:05:07;;;;;;;1.70;0.70;;;21.10;50.30;;;;;;2608954;52;21485;-67
2022/09/03 02:07:42;;;;;;;2.65;1.02;;;21.10;50.60;;;;;;2370382;54;20926;-71
2022/09/03 02:10:11;;;;;;;1.90;0.80;;;21.10;50.80;;;;;;2370432;53;21066;-67
2022/09/03 02:12:37;;;;;;;2.00;0.90;;;21.10;50.80;;;;;;2371198;54;21753;-69
2022/09/03 02:15:06;;;;;;;1.85;0.80;;;21.10;50.80;;;;;;2371386;54;20942;-69
2022/09/03 02:17:32;;;;;;;1.83;0.80;;;21.10;50.80;;;;;;2371775;53;20942;-69
2022/09/03 02:20:00;;;;;;;1.83;0.80;;;21.10;51.00;;;;;;2369394;53;20913;-67
2022/09/03 02:22:26;;;;;;;2.33;0.70;;;21.10;51.00;;;;;;2372618;53;21410;-68
2022/09/03 02:24:53;;;;;;;1.75;0.90;;;21.10;51.10;;;;;;2369643;53;20962;-68
2022/09/03 02:27:19;;;;;;;2.17;1.08;;;21.10;51.30;;;;;;2371461;54;21026;-69
2022/09/03 02:29:45;;;;;;;3.08;1.20;;;21.10;51.40;;;;;;2355071;53;21630;-68
2022/09/03 02:32:13;;;;;;;2.83;1.10;;;21.10;51.70;;;;;;2366631;53;20982;-69
2022/09/03 02:34:41;;;;;;;3.20;1.20;;;21.10;51.80;;;;;;2372939;53;20993;-68
2022/09/03 02:37:14;;;;;;;2.03;1.00;;;21.10;51.90;;;;;;2368009;53;20918;-69
2022/09/03 02:39:40;;;;;;;2.30;1.12;;;21.20;52.30;;;;;;2368112;54;20998;-68
2022/09/03 02:42:07;;;;;;;3.90;1.20;;;21.20;52.10;;;;;;2615711;52;21505;-67
2022/09/03 02:44:37;;;;;;;2.10;1.00;;;21.20;52.10;;;;;;2371130;54;20997;-66
2022/09/03 02:47:06;;;;;;;2.12;0.95;;;21.20;52.30;;;;;;2623541;52;20926;-68
2022/09/03 02:49:32;;;;;;;3.15;1.40;;;21.20;52.30;;;;;;2361903;53;20996;-68
2022/09/03 02:52:00;;;;;;;3.70;1.42;;;21.20;52.50;;;;;;2371121;53;21424;-66
2022/09/03 02:54:27;;;;;;;2.15;0.95;;;21.20;52.70;;;;;;2371013;53;21001;-68
2022/09/03 02:56:53;;;;;;;2.10;1.02;;;21.20;52.80;;;;;;2370662;53;20997;-67
2022/09/03 02:59:21;;;;;;;2.35;0.95;;;21.20;52.90;;;;;;2371040;53;21001;-70
2022/09/03 03:01:48;;;;;;;2.95;1.00;;;21.20;53.00;;;;;;2623413;52;21989;-71
2022/09/03 03:04:14;;;;;;;1.65;0.80;;;21.30;53.00;;;;;;2371941;53;20910;-67
2022/09/03 03:06:41;;;;;;;2.53;0.90;;;21.30;53.10;;;;;;2618963;52;20934;-68
2022/09/03 03:09:07;;;;;;;2.28;1.05;;;21.30;53.20;;;;;;2371203;54;21009;-68
2022/09/03 03:11:35;;;;;;;1.62;0.75;;;21.30;53.30;;;;;;2370886;54;20918;-69
2022/09/03 03:14:02;;;;;;;1.77;0.88;;;21.30;53.40;;;;;;2371058;54;20933;-70
2022/09/03 03:16:28;;;;;;;1.85;0.82;;;21.40;53.40;;;;;;2371164;53;20985;-69
2022/09/03 03:18:58;;;;;;;2.62;1.12;;;21.40;53.40;;;;;;2445699;52;20922;-69
2022/09/03 03:21:25;;;;;;;2.62;1.00;;;21.40;53.50;;;;;;2371361;53;20917;-69
2022/09/03 03:23:53;;;;;;;2.50;1.30;;;21.40;53.50;;;;;;2371246;54;20933;-68
2022/09/03 03:26:22;;;;;;;2.17;0.95;;;21.40;53.70;;;;;;2370997;53;21017;-68
2022/09/03 03:28:49;;;;;;;1.90;1.00;;;21.50;54.00;;;;;;2370666;53;21698;-69
2022/09/03 03:31:17;;;;;;;2.60;1.00;;;21.50;54.00;;;;;;2370609;54;20970;-71
2022/09/03 03:33:44;;;;;;;2.03;0.93;;;21.50;54.00;;;;;;2623585;52;20986;-67
2022/09/03 03:36:15;;;;;;;2.53;1.05;;;21.50;53.90;;;;;;2371921;53;21422;-69
2022/09/03 03:38:42;;;;;;;1.77;0.85;;;21.50;54.10;;;;;;2356641;54;20965;-70
2022/09/03 03:41:18;;;;;;;1.85;0.90;;;21.60;54.20;;;;;;2361372;53;20965;-68
2022/09/03 03:43:45;;;;;;;2.10;1.00;;;21.60;54.40;;;;;;2352627;53;21506;-70
2022/09/03 03:46:11;;;;;;;2.17;0.95;;;21.60;54.30;;;;;;2465808;52;20918;-70
2022/09/03 03:48:38;;;;;;;2.08;0.90;;;21.60;54.30;;;;;;2370340;54;20965;-67
2022/09/03 03:51:05;;;;;;;2.62;1.10;;;21.60;54.30;;;;;;2460625;53;20969;-69
2022/09/03 03:53:35;;;;;;;2.05;0.82;;;21.60;54.30;;;;;;2353838;53;21472;-69
2022/09/03 03:56:04;;;;;;;1.52;0.70;;;21.70;54.50;;;;;;2368705;53;20942;-67
2022/09/03 03:58:30;;;;;;;2.87;0.90;;;21.70;54.30;;;;;;2624061;52;21348;-68
2022/09/03 04:01:07;;;;;;;1.95;0.82;;;21.70;54.20;;;;;;2458620;52;21017;-70
2022/09/03 04:03:34;;;;;;;1.52;0.70;;;21.80;54.30;;;;;;2623269;52;21017;-68
2022/09/03 04:06:00;;;;;;;1.60;0.68;;;21.80;54.10;;;;;;2371281;54;20969;-70
2022/09/03 04:08:27;;;;;;;2.08;0.75;;;21.80;54.10;;;;;;2556825;52;20914;-70
2022/09/03 04:10:53;;;;;;;1.48;0.80;;;21.80;54.10;;;;;;2370802;54;20989;-71
2022/09/03 04:13:19;;;;;;;1.77;0.73;;;21.80;54.10;;;;;;2368563;53;21399;-69
2022/09/03 04:15:46;;;;;;;2.10;0.90;;;21.80;54.10;;;;;;2353448;53;20934;-70
2022/09/03 04:18:15;;;;;;;2.00;0.80;;;21.80;54.20;;;;;;2358105;53;21383;-70
2022/09/03 04:20:41;;;;;;;1.83;0.90;;;21.80;54.20;;;;;;2363313;53;21069;-68
2022/09/03 04:23:08;;;;;;;2.35;1.00;;;21.80;54.20;;;;;;2623944;52;21037;-68
2022/09/03 04:25:34;;;;;;;2.00;1.00;;;21.80;54.50;;;;;;2371100;53;20938;-69
2022/09/03 04:28:03;;;;;;;2.95;0.93;;;21.80;54.60;;;;;;2371551;54;21885;-69
2022/09/03 04:30:30;;;;;;;1.80;0.82;;;21.80;54.60;;;;;;2370922;54;20938;-70
2022/09/03 04:32:56;;;;;;;2.25;0.95;;;21.80;54.50;;;;;;2370655;53;21029;-68
2022/09/03 04:35:24;;;;;;;1.90;1.00;;;21.90;54.70;;;;;;2370796;53;21735;-70
2022/09/03 04:37:50;;;;;;;1.92;0.90;;;21.90;54.90;;;;;;2371152;53;20990;-70
2022/09/03 04:40:17;;;;;;;2.00;1.00;;;21.90;55.00;;;;;;2580021;52;20926;-69
2022/09/03 04:42:43;;;;;;;1.92;0.88;;;21.80;54.80;;;;;;2371121;54;20938;-70
2022/09/03 04:45:11;;;;;;;1.85;0.80;;;21.90;54.80;;;;;;2621241;52;21006;-71
2022/09/03 04:47:37;;;;;;;2.03;1.00;;;21.90;54.80;;;;;;2368300;53;20966;-71
2022/09/03 04:50:05;;;;;;;2.40;0.95;;;21.90;54.80;;;;;;2371170;53;21856;-68
2022/09/03 04:52:32;;;;;;;1.80;0.80;;;21.90;54.70;;;;;;2369957;53;21061;-72
2022/09/03 04:54:58;;;;;;;1.83;0.90;;;21.80;54.60;;;;;;2352458;53;21496;-68
2022/09/03 04:57:26;;;;;;;2.00;0.90;;;21.90;54.70;;;;;;2371126;53;21746;-70
2022/09/03 04:59:52;;;;;;;2.62;1.10;;;21.80;54.70;;;;;;2371216;54;21892;-69
2022/09/03 05:02:20;;;;;;;3.30;0.90;;;21.80;54.90;;;;;;2370874;54;20989;-69
2022/09/03 05:04:47;;;;;;;2.22;1.02;;;21.90;55.10;;;;;;2369864;53;20990;-70
2022/09/03 05:07:14;;;;;;;1.95;0.90;;;21.80;55.00;;;;;;2369971;53;20941;-70
2022/09/03 05:09:41;;;;;;;1.87;0.90;;;21.80;54.90;;;;;;2369846;53;21034;-70
2022/09/03 05:12:07;;;;;;;2.25;1.00;;;21.80;54.90;;;;;;2370116;53;21437;-69
2022/09/03 05:14:33;;;;;;;2.10;0.95;;;21.90;54.90;;;;;;2506029;52;20937;-70
2022/09/03 05:17:00;;;;;;;1.70;0.90;;;21.90;54.90;;;;;;2369965;53;21538;-72
2022/09/03 05:19:26;;;;;;;2.03;0.80;;;21.90;54.90;;;;;;2521389;52;20954;-69
2022/09/03 05:21:54;;;;;;;1.70;0.70;;;21.90;54.80;;;;;;2370064;53;20942;-68
2022/09/03 05:24:21;;;;;;;2.30;1.00;;;21.90;54.90;;;;;;2357901;53;20940;-70
2022/09/03 05:26:47;;;;;;;2.17;1.00;;;21.90;55.00;;;;;;2357207;53;21088;-69
2022/09/03 05:29:14;;;;;;;1.55;0.80;;;21.90;55.20;;;;;;2370102;54;21017;-68
2022/09/03 05:31:41;;;;;;;2.60;1.20;;;21.90;55.20;;;;;;2369466;54;21375;-71
2022/09/03 05:34:08;;;;;;;2.45;0.90;;;21.90;55.30;;;;;;2371551;53;21752;-69
2022/09/03 05:36:36;;;;;;;1.85;0.90;;;21.90;56.00;;;;;;2369863;54;20988;-70
2022/09/03 05:39:03;;;;;;;1.98;0.90;;;21.90;55.40;;;;;;2370593;53;20942;-69
2022/09/03 05:41:32;;;;;;;2.22;1.00;;;21.90;55.30;;;;;;2371537;53;21117;-71
2022/09/03 05:43:59;;;;;;;1.73;0.80;;;21.90;55.30;;;;;;2370670;52;20950;-69
2022/09/03 05:46:32;;;;;;;1.92;0.80;;;21.90;55.30;;;;;;2363807;53;21485;-70
2022/09/03 05:49:25;;;;;;;1.50;0.80;;;21.90;55.50;;;;;;2359655;53;21085;-68
2022/09/03 05:51:51;;;;;;;1.37;0.62;;;22.00;55.70;;;;;;2357424;53;21017;-68
2022/09/03 05:54:18;;;;;;;2.00;0.88;;;22.00;55.30;;;;;;2350681;53;20997;-70
2022/09/03 05:56:44;;;;;;;2.28;0.80;;;21.90;55.30;;;;;;2372504;54;21743;-68
2022/09/03 05:59:12;;;;;;;1.65;0.70;;;22.00;55.30;;;;;;2371300;53;20914;-71
2022/09/03 06:01:40;;;;;;;1.67;0.80;;;22.00;55.40;;;;;;2370762;54;20878;-69
2022/09/03 06:04:08;;;;;;;1.77;0.62;;;22.00;55.30;;;;;;2371203;54;20918;-69
2022/09/03 06:06:35;;;;;;;2.62;0.93;;;21.90;55.30;;;;;;2351042;53;21545;-69
2022/09/03 06:09:09;;;;;;;1.95;1.02;;;21.90;55.40;;;;;;2497477;52;20992;-70
2022/09/03 06:11:36;;;;;;;2.85;1.00;;;21.90;55.70;;;;;;2354292;53;21063;-69
2022/09/03 06:14:06;;;;;;;1.77;0.88;;;21.90;55.70;;;;;;2370188;53;20945;-70
2022/09/03 06:16:40;;;;;;;1.70;0.80;;;21.90;55.80;;;;;;2370977;53;20938;-70
2022/09/03 06:19:09;;;;;;;2.00;0.90;;;21.90;55.80;;;;;;2597380;52;21037;-68
2022/09/03 06:21:36;;;;;;;3.17;1.00;;;22.00;55.80;;;;;;2369789;53;21767;-70
2022/09/03 06:24:02;;;;;;;1.58;0.70;;;22.00;55.80;;;;;;2371077;54;21057;-68
2022/09/03 06:26:31;;;;;;;1.52;0.70;;;22.00;55.80;;;;;;2372635;53;21018;-69
2022/09/03 06:28:58;;;;;;;1.90;0.90;;;22.10;55.80;;;;;;2623510;52;20998;-69
2022/09/03 06:31:24;;;;;;;1.70;0.70;;;22.00;55.60;;;;;;2373344;53;20946;-70
2022/09/03 06:33:53;;;;;;;1.87;0.80;;;22.10;55.70;;;;;;2571365;52;20938;-70
2022/09/03 06:36:19;;;;;;;3.00;1.20;;;22.10;55.70;;;;;;2493806;52;21042;-70
2022/09/03 06:38:46;;;;;;;2.30;0.98;;;22.10;55.70;;;;;;2370648;54;20966;-70
2022/09/03 06:41:20;;;;;;;2.33;1.00;;;22.10;56.40;;;;;;2370806;54;20930;-70
2022/09/03 06:43:46;;;;;;;2.20;0.93;;;22.10;55.90;;;;;;2622955;52;20966;-68
2022/09/03 06:46:17;;;;;;;1.50;0.80;;;22.10;55.80;;;;;;2370588;54;20938;-70
2022/09/03 06:48:43;;;;;;;1.58;0.80;;;22.20;55.90;;;;;;2623233;52;21819;-68
2022/09/03 06:51:11;;;;;;;1.70;0.88;;;22.20;55.90;;;;;;2389792;52;21264;-69
2022/09/03 06:53:39;;;;;;;1.62;0.80;;;22.20;55.90;;;;;;2369576;53;21045;-69
2022/09/03 06:56:11;;;;;;;2.53;1.20;;;22.20;55.90;;;;;;2371139;54;21112;-70
2022/09/03 06:58:44;;;;;;;2.10;1.00;;;22.20;56.10;;;;;;2624293;52;20925;-70
2022/09/03 07:01:15;;;;;;;1.98;1.00;;;22.20;56.20;;;;;;2623675;52;21315;-70
2022/09/03 07:03:42;;;;;;;1.95;0.98;;;22.30;56.20;;;;;;2371026;53;20954;-70
2022/09/03 07:06:16;;;;;;;2.17;0.90;;;22.30;56.20;;;;;;2371013;53;20934;-70
2022/09/03 07:08:42;;;;;;;2.47;0.95;;;22.30;56.30;;;;;;2530500;52;21893;-70
2022/09/03 07:11:16;;;;;;;2.00;0.88;;;22.30;56.10;;;;;;2370362;53;20933;-70
2022/09/03 07:13:43;;;;;;;2.10;0.98;;;22.30;56.70;;;;;;2370878;53;20962;-69
2022/09/03 07:16:20;;;;;;;2.10;1.00;;;22.40;56.10;;;;;;2371800;54;21037;-69
2022/09/03 07:18:46;;;;;;;2.33;1.10;;;22.40;56.20;;;;;;2386474;52;20946;-71
2022/09/03 07:21:14;;;;;;;2.05;1.10;;;22.40;56.10;;;;;;2371014;54;21355;-70
2022/09/03 07:23:40;;;;;;;2.33;1.20;;;22.50;56.20;;;;;;2554036;52;20985;-70
2022/09/03 07:26:14;;;;;;;2.03;1.00;;;22.50;56.20;;;;;;2370683;54;20934;-70
2022/09/03 07:28:47;;;;;;;2.40;1.20;;;22.50;56.40;;;;;;2373414;53;21021;-70
2022/09/03 07:31:24;;;;;;;2.55;1.20;;;22.60;56.40;;;;;;2499764;52;20941;-70
2022/09/03 07:33:54;;;;;;;3.15;1.27;;;22.60;56.60;;;;;;2489422;52;21049;-71
2022/09/03 07:36:20;;;;;;;2.40;1.20;;;22.60;56.70;;;;;;2353608;53;21425;-75
2022/09/03 07:38:47;;;;;;;2.37;1.00;;;22.60;56.60;;;;;;2367912;53;21010;-70
2022/09/03 07:41:13;;;;;;;2.37;1.00;;;22.70;56.70;;;;;;2378290;52;20941;-71
2022/09/03 07:43:47;;;;;;;2.75;1.25;;;22.70;56.80;;;;;;2356642;53;21607;-70
2022/09/03 07:46:22;;;;;;;2.42;1.02;;;22.70;57.10;;;;;;2435792;52;20926;-72
2022/09/03 07:48:58;;;;;;;2.40;1.00;;;22.70;57.10;;;;;;2355535;53;20944;-71
2022/09/03 07:51:25;;;;;;;2.22;1.00;;;22.80;57.20;;;;;;2369301;53;21759;-74
2022/09/03 07:53:53;;;;;;;2.42;1.12;;;22.80;57.30;;;;;;2353267;53;21028;-70
2022/09/03 07:56:19;;;;;;;2.70;1.10;;;22.80;57.30;;;;;;2368922;53;21745;-71
2022/09/03 07:58:46;;;;;;;2.72;1.02;;;22.80;57.30;;;;;;2370706;53;21005;-69
2022/09/03 08:01:19;;;;;;;2.47;1.12;;;22.90;57.40;;;;;;2371328;53;21019;-71
2022/09/03 08:03:46;;;;;;;;;;;22.90;58.00;;;;;;2373795;53;20914;-71
2022/09/03 08:06:13;;;;;;;1.92;0.88;;;23.00;58.10;;;;;;2373466;52;20547;-71
2022/09/03 08:08:39;;;;;;;1.92;0.80;;;23.00;57.60;;;;;;2369391;53;21084;-70
2022/09/03 08:11:10;;;;;;;2.30;1.15;;;23.00;57.70;;;;;;2371220;53;20985;-72
2022/09/03 08:13:41;;;;;;;1.75;0.90;;;23.10;58.10;;;;;;2368700;53;21008;-71
2022/09/03 08:16:08;;;;;;;2.53;1.05;;;23.10;58.10;;;;;;2370861;54;20945;-72
2022/09/03 08:18:38;;;;;;;2.08;1.00;;;23.20;58.00;;;;;;2624702;52;21017;-69
2022/09/03 08:21:06;;;;;;;1.62;0.80;;;23.20;57.90;;;;;;2361543;53;20971;-71
2022/09/03 08:23:35;;;;;;;2.08;0.95;;;23.30;58.00;;;;;;2356128;53;20946;-70
2022/09/03 08:26:02;;;;;;;3.50;1.00;;;23.30;57.80;;;;;;2367735;54;21125;-71
2022/09/03 08:28:28;;;;;;;2.90;1.40;;;23.40;57.80;;;;;;2352246;53;21453;-70
2022/09/03 08:30:55;;;;;;;2.65;1.30;;;23.40;57.80;;;;;;2371027;54;20942;-70
2022/09/03 08:33:36;;;;;;;2.58;1.15;;;23.40;57.80;;;;;;2624015;52;20994;-71
2022/09/03 08:36:07;;;;;;;2.75;1.33;;;23.40;57.80;;;;;;2379194;52;20973;-72
2022/09/03 08:38:33;;;;;;;5.53;1.30;;;23.50;57.80;;;;;;2371334;53;20933;-71
2022/09/03 08:42:49;;;;;;;9.35;2.15;;;23.50;57.70;;;;;;2592890;52;21462;-71
2022/09/03 08:45:17;;;;;;;2.67;1.40;;;23.50;58.10;;;;;;2371065;54;20945;-70
2022/09/03 08:54:31;;;;;;;2.25;1.20;;;23.50;57.60;;;;;;2598584;52;1408509;-72
2022/09/03 08:57:02;;;;;;;1.52;0.75;;;23.70;57.70;;;;;;2353435;53;21036;-72
2022/09/03 08:59:31;;;;;;;4.53;1.40;;;23.70;57.60;;;;;;2368660;53;20933;-71
2022/09/03 09:04:40;;;;;;;2.50;1.17;;;23.70;58.10;;;;;;2371064;53;20941;-71
2022/09/03 09:08:13;;;;;;;2.17;0.88;;;23.80;58.30;;;;;;2371654;54;20906;-75
2022/09/03 09:10:48;;;;;;;3.03;1.60;;;23.80;57.80;;;;;;2495800;52;21413;-71
2022/09/03 09:16:03;;;;;;;2.30;1.33;;;23.90;58.30;;;;;;2359265;53;21002;-74
2022/09/03 09:20:36;;;;;;;2.00;1.00;;;24.00;58.30;;;;;;2405815;52;21830;-69
2022/09/03 09:23:06;;;;;;;2.67;1.30;;;24.10;58.10;;;;;;2353731;53;21465;-71
2022/09/03 09:25:38;;;;;;;2.47;1.23;;;24.10;57.80;;;;;;2369435;53;20949;-68
2022/09/03 09:28:20;;;;;;;3.20;1.45;;;24.20;57.80;;;;;;2365871;54;21044;-71
2022/09/03 09:30:47;;;;;;;2.70;1.45;;;24.20;58.00;;;;;;2564821;52;21772;-68
2022/09/03 09:33:14;;;;;;;3.83;1.20;;;24.30;58.10;;;;;;2371481;54;21757;-68
2022/09/03 09:35:41;;;;;;;2.72;1.33;;;24.30;58.20;;;;;;2370700;53;20969;-67
2022/09/03 09:38:09;;;;;;;2.50;1.00;;;24.30;58.20;;;;;;2370984;53;21021;-68
2022/09/03 09:40:42;;;;;;;2.62;1.20;;;24.40;58.30;;;;;;2371066;54;20962;-67
2022/09/03 09:43:18;;;;;;;2.92;1.20;;;24.40;58.40;;;;;;2370610;54;21018;-69
2022/09/03 09:45:47;;;;;;;2.70;1.33;;;24.50;58.30;;;;;;2350339;54;20942;-67
2022/09/03 09:48:28;;;;;;;2.72;1.25;;;24.60;58.30;;;;;;2370583;54;20933;-71
2022/09/03 09:51:08;;;;;;;2.10;1.00;;;24.60;58.20;;;;;;2371305;54;20954;-66
2022/09/03 09:53:35;;;;;;;2.58;1.40;;;24.70;58.30;;;;;;2370741;54;21001;-68
2022/09/03 09:56:04;;;;;;;3.05;1.40;;;24.80;58.00;;;;;;2624050;52;20930;-67
2022/09/03 09:58:31;;;;;;;3.03;1.62;;;24.80;57.90;;;;;;2370776;53;20953;-68
2022/09/03 10:01:11;;;;;;;2.90;1.55;;;24.90;57.70;;;;;;2370239;53;21379;-67
2022/09/03 10:03:58;;;;;;;4.55;1.42;;;24.90;57.50;;;;;;2371277;54;20948;-68
2022/09/03 10:09:12;;;;;;;2.00;1.08;;;25.00;57.30;;;;;;2371218;53;20934;-69
2022/09/03 10:11:42;;;;;;;3.00;1.20;;;25.00;57.20;;;;;;2370513;53;21014;-69
2022/09/03 10:14:18;;;;;;;2.78;1.00;;;25.00;57.30;;;;;;2370821;54;21021;-68
2022/09/03 10:16:47;;;;;;;1.92;1.00;;;25.10;57.20;;;;;;2370450;53;20966;-69
2022/09/03 10:19:18;;;;;;;2.10;1.10;;;25.10;57.20;;;;;;2371269;53;20934;-70
2022/09/03 10:21:50;;;;;;;2.70;1.20;;;25.10;57.40;;;;;;2370122;53;20934;-69
2022/09/03 10:25:28;;;;;;;2.65;1.35;;;25.10;57.30;;;;;;2371673;54;20962;-68
2022/09/03 10:27:55;;;;;;;2.70;1.27;;;25.20;57.20;;;;;;2461509;52;21528;-69
2022/09/03 10:30:22;;;;;;;4.85;1.30;;;25.20;57.20;;;;;;2369905;53;21489;-71
2022/09/03 10:33:04;;;;;;;2.60;1.27;;;25.20;57.30;;;;;;2371039;54;20957;-71
2022/09/03 10:35:38;;;;;;;2.72;1.45;;;25.20;57.50;;;;;;2370151;54;21018;-69
2022/09/03 10:38:27;;;;;;;2.12;1.12;;;25.30;57.30;;;;;;2370348;53;21868;-70
2022/09/03 10:42:45;;;;;;;2.08;0.90;;;25.30;57.40;;;;;;2370989;53;21830;-70
2022/09/03 10:46:36;;;;;;;2.40;1.25;;;25.40;57.60;;;;;;2370135;53;21021;-70
2022/09/03 10:49:19;;;;;;;2.62;1.40;;;25.40;57.40;;;;;;2371976;53;21462;-70
2022/09/03 10:52:23;;;;;;;2.50;1.20;;;25.40;57.30;;;;;;2574421;52;20965;-69
2022/09/03 10:55:23;;;;;;;2.95;1.12;;;25.40;57.20;;;;;;2363929;53;20938;-72
2022/09/03 11:00:45;;;;;;;2.12;0.82;;;25.40;56.40;;;;;;2370531;53;20978;-74
2022/09/03 11:05:35;;;;;;;2.17;0.80;;;25.30;56.20;;;;;;2371198;53;21691;-74
2022/09/03 11:08:11;;;;;;;3.37;0.70;;;25.20;56.10;;;;;;2370019;53;20950;-72
2022/09/03 11:10:41;;;;;;;1.55;0.60;;;25.10;55.90;;;;;;2370032;53;20941;-75
2022/09/03 11:13:25;;;;;;;1.05;0.40;;;25.00;56.00;;;;;;2370657;54;21026;-73
2022/09/03 11:16:05;;;;;;;2.85;0.70;;;24.80;56.50;;;;;;2425859;52;21049;-73
2022/09/03 11:18:42;;;;;;;1.27;0.40;;;24.70;57.10;;;;;;2620333;52;20949;-73
2022/09/03 11:21:14;;;;;;;1.15;0.50;;;24.60;57.50;;;;;;2503969;52;21014;-73
2022/09/03 11:23:44;;;;;;;1.92;0.60;;;24.50;57.80;;;;;;2370019;54;20945;-73
2022/09/03 11:26:12;;;;;;;2.40;1.00;;;24.40;58.20;;;;;;2453268;52;20962;-74
2022/09/03 11:29:01;;;;;;;1.48;0.68;;;24.30;58.60;;;;;;2370390;53;21446;-72
2022/09/03 11:31:46;;;;;;;1.73;0.73;;;24.20;59.10;;;;;;2403110;52;21486;-73
2022/09/03 11:34:14;;;;;;;1.42;0.60;;;24.10;59.50;;;;;;2359417;53;20968;-75
2022/09/03 11:36:40;;;;;;;1.20;0.57;;;24.10;59.90;;;;;;2362068;53;21474;-72
2022/09/03 11:40:45;;;;;;;1.60;0.62;;;24.00;60.20;;;;;;2368308;53;20918;-70
2022/09/03 11:43:25;;;;;;;1.02;0.50;;;23.90;60.60;;;;;;2369244;54;20954;-67
2022/09/03 11:46:03;;;;;;;1.73;0.68;;;23.90;61.20;;;;;;2549780;52;20942;-70
2022/09/03 11:49:15;;;;;;;1.75;0.68;;;23.90;61.90;;;;;;2611924;52;20980;-70
2022/09/03 11:51:42;;;;;;;1.40;0.60;;;23.80;62.10;;;;;;2345147;54;21746;-70
2022/09/03 11:54:30;;;;;;;1.70;0.70;;;23.80;62.10;;;;;;2369973;53;21029;-67
2022/09/03 11:57:12;;;;;;;1.08;0.52;;;23.80;62.30;;;;;;2372445;54;20973;-70
2022/09/03 11:59:42;;;;;;;2.05;0.73;;;23.80;62.50;;;;;;2350820;53;20933;-68
2022/09/03 12:02:34;;;;;;;1.27;0.50;;;23.70;62.60;;;;;;2368680;54;20937;-69
2022/09/03 12:06:47;;;;;;;1.98;0.60;;;23.70;62.90;;;;;;2383504;52;21628;-70
2022/09/03 12:11:03;;;;;;;1.67;0.62;;;23.70;63.10;;;;;;2350412;53;20913;-70
2022/09/03 12:15:01;;;;;;;1.52;0.60;;;23.70;62.90;;;;;;2372027;54;20959;-68
2022/09/03 12:18:17;;;;;;;1.25;0.52;;;23.70;63.30;;;;;;2452197;52;20977;-69
2022/09/03 12:20:44;;;;;;;1.33;0.50;;;23.60;63.30;;;;;;2350355;53;21222;-66
2022/09/03 12:23:24;;;;;;;1.45;0.55;;;23.60;63.40;;;;;;2370716;53;20945;-68
2022/09/03 12:25:51;;;;;;;1.33;0.43;;;23.60;63.50;;;;;;2370358;54;20946;-68
2022/09/03 12:28:22;;;;;;;2.10;0.70;;;23.60;63.70;;;;;;2370807;54;21497;-65
2022/09/03 12:30:52;;;;;;;0.95;0.43;;;23.50;63.90;;;;;;2622291;52;21125;-76
2022/09/03 12:33:19;;;;;;;0.75;0.30;;;23.50;64.00;;;;;;2368435;56;21129;-75
2022/09/03 12:35:58;;;;;;;0.93;0.40;;;23.50;64.20;;;;;;2356029;54;21595;-74
2022/09/03 12:38:28;;;;;;;1.00;0.40;;;23.50;64.20;;;;;;2355356;53;20946;-75
2022/09/03 12:40:55;;;;;;;2.37;0.40;;;23.50;64.50;;;;;;2369606;53;21723;-72
2022/09/03 12:43:56;;;;;;;0.57;0.30;;;23.50;64.90;;;;;;2369641;54;21000;-73
2022/09/03 12:46:30;;;;;;;1.27;0.50;;;23.50;65.20;;;;;;2350340;53;20945;-75
2022/09/03 12:49:04;;;;;;;1.00;0.60;;;23.60;65.50;;;;;;2349858;53;20933;-72
2022/09/03 12:52:02;;;;;;;1.05;0.43;;;23.60;65.60;;;;;;2370491;54;20933;-75
2022/09/03 12:54:31;;;;;;;1.12;0.40;;;23.60;65.50;;;;;;2620794;52;20986;-74
2022/09/03 12:56:57;;;;;;;1.05;0.50;;;23.60;65.60;;;;;;2622790;52;20941;-73
2022/09/03 12:59:24;;;;;;;1.30;0.50;;;23.60;66.30;;;;;;2367948;53;21014;-72
2022/09/03 13:01:52;;;;;;;0.80;0.30;;;23.70;65.70;;;;;;2370532;53;21073;-72
2022/09/03 13:04:31;;;;;;;0.70;0.40;;;23.70;65.70;;;;;;2389598;52;21056;-72
2022/09/03 13:07:12;;;;;;;1.12;0.45;;;23.70;65.70;;;;;;2369781;54;20922;-72
2022/09/03 13:09:40;;;;;;;1.15;0.50;;;23.80;65.70;;;;;;2435895;52;21465;-73
2022/09/03 13:12:06;;;;;;;1.00;0.40;;;23.80;65.80;;;;;;2384326;52;20929;-71
2022/09/03 13:14:42;;;;;;;0.82;0.40;;;23.80;66.00;;;;;;2369619;54;20992;-75
2022/09/03 13:17:43;;;;;;;2.75;0.35;;;23.80;66.10;;;;;;2361777;53;21003;-73
2022/09/03 13:21:44;;;;;;;0.98;0.50;;;23.80;66.30;;;;;;2363324;53;21041;-73
2022/09/03 13:24:37;;;;;;;0.62;0.30;;;23.80;66.60;;;;;;2366754;54;21791;-73
2022/09/03 13:27:19;;;;;;;0.68;0.30;;;23.90;66.50;;;;;;2351635;52;20980;-72
2022/09/03 13:30:11;;;;;;;1.27;0.40;;;23.90;66.60;;;;;;2370250;54;20974;-73
2022/09/03 13:33:45;;;;;;;1.05;0.50;;;23.90;66.50;;;;;;2352369;53;21028;-74
2022/09/03 13:36:36;;;;;;;0.32;0.20;;;23.90;66.60;;;;;;2370234;53;21061;-72
2022/09/03 13:39:07;;;;;;;0.80;0.30;;;24.00;66.90;;;;;;2370552;54;20982;-72
2022/09/03 13:41:52;;;;;;;1.55;0.50;;;24.00;67.20;;;;;;2623157;52;21473;-74
2022/09/03 13:44:48;;;;;;;0.73;0.30;;;24.00;67.10;;;;;;2352789;53;20922;-72
2022/09/03 13:53:00;;;;;;;0.37;0.20;;;24.20;67.50;;;;;;2369628;54;20938;-72
2022/09/03 13:55:47;;;;;;;1.00;0.40;;;24.20;67.90;;;;;;2369134;54;20961;-72
2022/09/03 13:58:39;;;;;;;0.77;0.32;;;24.30;67.40;;;;;;2369192;54;21017;-72
2022/09/03 14:01:27;;;;;;;1.00;0.40;;;24.40;67.30;;;;;;2371221;53;20954;-73
2022/09/03 14:03:57;;;;;;;0.45;0.25;;;24.40;66.90;;;;;;2370109;54;21748;-72
2022/09/03 14:06:45;;;;;;;;;;;24.40;66.90;;;;;;2369799;53;20997;-73
2022/09/03 14:09:32;;;;;;;0.60;0.30;;;24.40;66.10;;;;;;2358396;53;20749;-72
2022/09/03 14:12:41;;;;;;;0.45;0.30;;;24.50;66.60;;;;;;2370315;54;20922;-72
2022/09/03 14:15:57;;;;;;;1.00;0.32;;;24.50;66.30;;;;;;2370419;54;21033;-73
2022/09/03 14:18:47;;;;;;;0.50;0.20;;;24.50;66.50;;;;;;2572176;52;20926;-71
2022/09/03 14:21:21;;;;;;;0.90;0.50;;;24.50;66.80;;;;;;2369985;54;20926;-71